Terminal Aerodrome Forecast
Issued by NWS

Current Version | Previous Version | Text Only | Print | Product List | Glossary Off
Versions: 1 2 3 4 5 6 7 8 9 10 11 12 13 14 15 16 17 18

770
FTUS41 KPBZ 201000 AAC
TAFHLG
TAF AMD
KHLG 201000Z 2010/2106 20003KT 3/4SM BR OVC004
     FM201300 00000KT 2SM BR BKN004
     FM201400 00000KT 5SM BR SCT015
     FM201500 00000KT P6SM SCT250=

USA.gov is the U.S. government's official web portal to all federal, state and local government web resources and services.